Capitol Logistics 997


KLAX
Los Angeles International Airport
Los Angeles, California, US
RKSI
Incheon International Airport
Seoul, , KR

Route Details

Aircraft Information
Primary: Boeing 747-400BCF
Backup: Boeing 777-200LRF
Route Data
Distance: 5203nm
Sched. Duration: 12h 00m
Avg. Duration: 12h 01m (+2m)
Times Flown: 4
Recm'd Route: SUMMR1 MCKEY LIBBO BRINY BOARS BOXER FULMR FASEL 5300N/14000W 5500N/15000W 5600N/16000W ONEOX B757 NULUK R220 NUZAN NIPPI R220 NOGAL R220 NANNO R220 NODAN NIKON IXE Y88 CHINO Y16 SAPRA G585 CUN CUN1M
Planned Altitude: 28,000ft
Origin Wx: KLAX 231253Z 00000KT 10SM FEW037 FEW170 14/09 A3019 RMK AO2 SLP223 T01390089
Dest. Wx: RKSI 231300Z 19006KT CAVOK 03/M02 Q1027 NOSIG
Notes:

Financial History
Total Freight: 220,821lbs
Average Load: 55,205lbs/flt
Fuel Used: 877,402lbs
Avg. Fuel Used: 219,351lbs/flt
Fuel Expense: $1,024,599
Avg. Fuel Expense: $256,150
Avg. Fuel Cost: $1.17/lbs
Total Gross Income: $880,168
Pilot Pay: $936
Total Expenses: $95,266
Total Revenue: $-251,081
Average Revenue: $220,042.04